Time;durP1;ratioP1;P1;durP2;ratioP2;P2;SDS_P1;SDS_P2;PMS_P1;PMS_P2;Temp;Humidity;BMP_temperature;BMP_pressure;BME280_temperature;BME280_humidity;BME280_pressure;Samples;Min_cycle;Max_cycle;Signal;HPM_P1;HPM_P2
2023/01/14 00:01:10;;;;;;;2.47;1.13;;;;;;;4.23;100.00;100501.78;5023497;28;20280;-73
2023/01/14 00:03:36;;;;;;;1.37;1.00;;;;;;;4.29;100.00;100500.91;5011258;28;20206;-72
2023/01/14 00:06:03;;;;;;;4.63;0.87;;;;;;;4.31;100.00;100505.22;5031505;28;20240;-72
2023/01/14 00:08:34;;;;;;;1.63;0.87;;;;;;;4.38;100.00;100507.78;5029159;28;20201;-72
2023/01/14 00:11:02;;;;;;;1.17;0.70;;;;;;;4.52;100.00;100506.91;5028049;28;20267;-72
2023/01/14 00:13:28;;;;;;;2.83;0.90;;;;;;;4.54;100.00;100499.16;5027626;28;20227;-72
2023/01/14 00:15:56;;;;;;;2.87;0.90;;;;;;;4.74;100.00;100511.97;5029953;28;20207;-72
2023/01/14 00:18:25;;;;;;;1.70;1.03;;;;;;;4.76;100.00;100502.50;5029087;28;20206;-72
2023/01/14 00:20:59;;;;;;;0.83;0.70;;;;;;;4.74;100.00;100514.56;5023631;28;20807;-72
2023/01/14 00:23:26;;;;;;;0.90;0.70;;;;;;;4.72;100.00;100517.13;5027045;28;20203;-72
2023/01/14 00:25:53;;;;;;;1.23;0.80;;;;;;;4.73;100.00;100513.72;5019075;28;20221;-72
2023/01/14 00:28:19;;;;;;;0.93;0.57;;;;;;;4.82;100.00;100524.84;5009290;28;20212;-72
2023/01/14 00:30:46;;;;;;;2.17;0.60;;;;;;;4.83;100.00;100522.25;5012879;28;20286;-72
2023/01/14 00:33:12;;;;;;;2.53;0.70;;;;;;;4.79;100.00;100524.88;5027793;28;20279;-72
2023/01/14 00:35:40;;;;;;;0.50;0.50;;;;;;;4.77;100.00;100532.63;5013843;28;20212;-72
2023/01/14 00:38:06;;;;;;;1.17;0.67;;;;;;;4.72;100.00;100537.81;5011905;28;20219;-72
2023/01/14 00:40:33;;;;;;;2.53;0.80;;;;;;;4.74;100.00;100532.63;5011794;28;20230;-72
2023/01/14 00:42:59;;;;;;;1.37;0.63;;;;;;;4.72;100.00;100544.72;5013297;28;20682;-72
2023/01/14 00:45:26;;;;;;;2.60;1.10;;;;;;;4.71;100.00;100546.44;5010836;28;20239;-72
2023/01/14 00:47:53;;;;;;;1.80;0.77;;;;;;;4.73;100.00;100551.56;5022718;28;20207;-72
2023/01/14 00:50:21;;;;;;;3.53;0.93;;;;;;;4.66;100.00;100555.91;5009705;28;20451;-72
2023/01/14 00:52:48;;;;;;;2.73;0.80;;;;;;;4.64;100.00;100559.34;5029008;28;20200;-72
2023/01/14 00:55:15;;;;;;;5.67;0.90;;;;;;;4.59;100.00;100553.34;5027593;28;20204;-72
2023/01/14 00:57:41;;;;;;;1.80;0.77;;;;;;;4.66;100.00;100558.50;5026552;28;21114;-72
2023/01/14 01:00:09;;;;;;;1.13;0.67;;;;;;;4.83;100.00;100560.16;5006443;28;20214;-72
2023/01/14 01:02:35;;;;;;;0.93;0.80;;;;;;;4.89;100.00;100565.28;5029669;28;20210;-72
2023/01/14 01:05:04;;;;;;;1.50;0.60;;;;;;;4.95;100.00;100567.88;5025958;28;20195;-72
2023/01/14 01:07:30;;;;;;;1.00;0.73;;;;;;;4.99;100.00;100568.72;5024725;28;20247;-72
2023/01/14 01:09:58;;;;;;;0.77;0.60;;;;;;;5.02;100.00;100566.97;5027451;28;20238;-72
2023/01/14 01:12:26;;;;;;;3.03;0.73;;;;;;;5.06;100.00;100567.81;5014288;28;20199;-72
2023/01/14 01:14:52;;;;;;;1.10;0.77;;;;;;;5.06;100.00;100563.50;5014553;28;20710;-72
2023/01/14 01:17:19;;;;;;;0.70;0.70;;;;;;;5.08;100.00;100572.13;5033716;28;20214;-72
2023/01/14 01:19:46;;;;;;;1.03;0.50;;;;;;;5.10;100.00;100572.09;5027151;28;20235;-72
2023/01/14 01:22:13;;;;;;;1.90;0.43;;;;;;;5.12;100.00;100570.41;5027995;28;20206;-72
2023/01/14 01:24:39;;;;;;;2.30;0.53;;;;;;;5.14;100.00;100573.81;5030665;28;20210;-72
2023/01/14 01:27:07;;;;;;;3.70;0.97;;;;;;;5.16;100.00;100577.25;5007849;28;20269;-72
2023/01/14 01:29:33;;;;;;;2.10;0.90;;;;;;;5.19;100.00;100572.06;5032777;28;20216;-72
2023/01/14 01:32:00;;;;;;;2.97;0.60;;;;;;;5.22;100.00;100579.78;5026494;28;20214;-72
2023/01/14 01:34:30;;;;;;;1.73;1.00;;;;;;;5.20;100.00;100575.50;5016042;28;20832;-72
2023/01/14 01:36:57;;;;;;;1.63;0.50;;;;;;;5.21;100.00;100590.16;5011376;28;20192;-72
2023/01/14 01:39:25;;;;;;;0.80;0.53;;;;;;;5.22;100.00;100584.13;5014078;28;20517;-72
2023/01/14 01:41:51;;;;;;;1.47;0.67;;;;;;;5.24;100.00;100596.19;5031899;28;20208;-72
2023/01/14 01:44:51;;;;;;;0.90;0.60;;;;;;;5.15;100.00;100587.59;5036025;28;20226;-72
2023/01/14 01:47:19;;;;;;;1.00;0.70;;;;;;;5.09;100.00;100585.91;5001460;28;20227;-72
2023/01/14 01:49:47;;;;;;;1.80;0.80;;;;;;;5.01;100.00;100597.97;5018211;28;20695;-72
2023/01/14 01:52:19;;;;;;;0.47;0.47;;;;;;;4.92;100.00;100589.44;5012130;28;20200;-72
2023/01/14 01:54:51;;;;;;;1.93;0.70;;;;;;;4.82;100.00;100594.59;5026160;28;20222;-72
2023/01/14 01:57:18;;;;;;;0.80;0.70;;;;;;;4.79;100.00;100590.31;5011042;28;20212;-72
2023/01/14 01:59:49;;;;;;;2.13;0.70;;;;;;;4.77;100.00;100592.03;5014376;28;20322;-72
2023/01/14 02:02:16;;;;;;;1.73;0.67;;;;;;;4.79;100.00;100586.88;5017719;28;20419;-72
2023/01/14 02:04:46;;;;;;;1.37;0.50;;;;;;;4.80;100.00;100591.16;5021485;28;20692;-72
2023/01/14 02:07:16;;;;;;;2.63;1.20;;;;;;;4.83;100.00;100597.19;5026976;28;20646;-72
2023/01/14 02:09:44;;;;;;;1.37;1.00;;;;;;;4.82;100.00;100602.34;5033905;28;20208;-72
2023/01/14 02:12:24;;;;;;;2.67;0.70;;;;;;;4.74;100.00;100600.66;5014602;28;20208;-72
2023/01/14 02:15:10;;;;;;;1.43;0.80;;;;;;;4.79;100.00;100599.78;5032869;28;20227;-72
2023/01/14 02:17:43;;;;;;;3.57;0.80;;;;;;;4.84;100.00;100606.66;5015574;28;20192;-72
2023/01/14 02:20:22;;;;;;;1.50;0.47;;;;;;;4.92;100.00;100611.78;5028392;28;20788;-72
2023/01/14 02:23:24;;;;;;;5.50;0.77;;;;;;;4.93;100.00;100609.22;5028381;28;20319;-72
2023/01/14 02:26:24;;;;;;;2.63;1.13;;;;;;;4.98;100.00;100613.50;5029874;28;20729;-72
2023/01/14 02:29:09;;;;;;;3.30;0.70;;;;;;;5.00;100.00;100604.88;4996665;28;20227;-72
2023/01/14 02:31:45;;;;;;;3.90;0.80;;;;;;;5.00;100.00;100609.22;5011564;28;20299;-72
2023/01/14 02:34:17;;;;;;;1.23;0.70;;;;;;;5.02;100.00;100612.63;5015152;28;20207;-72
2023/01/14 02:36:52;;;;;;;1.20;0.60;;;;;;;5.00;100.00;100615.22;5014996;28;20226;-72
2023/01/14 02:39:28;;;;;;;1.07;0.70;;;;;;;5.00;100.00;100622.97;5012059;28;20234;-72
2023/01/14 02:45:00;;;;;;;2.20;0.80;;;;;;;5.04;100.00;100623.81;4986599;28;20679;-72
2023/01/14 02:47:32;;;;;;;0.87;0.50;;;;;;;5.10;100.00;100635.00;5008156;28;20219;-72
2023/01/14 02:50:00;;;;;;;2.93;0.90;;;;;;;5.09;100.00;100638.44;5009588;28;20227;-72
2023/01/14 02:52:28;;;;;;;2.30;0.83;;;;;;;5.11;100.00;100635.84;5006691;28;20598;-72
2023/01/14 02:54:56;;;;;;;1.03;0.80;;;;;;;5.12;100.00;100641.03;5028631;28;20207;-72
2023/01/14 02:57:39;;;;;;;1.07;0.70;;;;;;;5.17;100.00;100641.03;5012146;28;20283;-72
2023/01/14 03:00:13;;;;;;;2.77;0.80;;;;;;;5.21;100.00;100645.31;5015781;28;20319;-72
2023/01/14 03:02:58;;;;;;;1.83;0.93;;;;;;;5.28;100.00;100641.81;5014887;28;20196;-72
2023/01/14 03:05:43;;;;;;;1.07;0.80;;;;;;;5.28;100.00;100646.16;5010830;28;20199;-72
2023/01/14 03:08:21;;;;;;;3.50;0.80;;;;;;;5.29;100.00;100653.03;5025700;28;21023;-72
2023/01/14 03:10:54;;;;;;;1.67;0.80;;;;;;;5.31;100.00;100648.69;5029517;28;20209;-72
2023/01/14 03:13:23;;;;;;;1.67;1.10;;;;;;;5.33;100.00;100654.75;5035348;28;20412;-72
2023/01/14 03:15:55;;;;;;;2.03;0.90;;;;;;;5.37;100.00;100653.00;5010279;28;20223;-72
2023/01/14 03:18:30;;;;;;;2.40;0.73;;;;;;;5.37;100.00;100659.03;5032357;28;20236;-72
2023/01/14 03:21:01;;;;;;;2.23;0.73;;;;;;;5.37;100.00;100660.75;5013475;28;20203;-72
2023/01/14 03:23:30;;;;;;;6.60;0.77;;;;;;;5.38;100.00;100662.47;5030682;28;20200;-72
2023/01/14 03:25:59;;;;;;;2.77;0.70;;;;;;;5.42;100.00;100672.81;5009003;28;20196;-72
2023/01/14 03:28:31;;;;;;;3.33;1.20;;;;;;;5.41;100.00;100681.41;5013599;28;20658;-72
2023/01/14 03:31:01;;;;;;;2.93;0.70;;;;;;;5.43;100.00;100674.50;5024009;28;20277;-72
2023/01/14 03:33:39;;;;;;;1.40;0.73;;;;;;;5.41;100.00;100670.22;5009934;28;20195;-72
2023/01/14 03:36:07;;;;;;;2.83;0.77;;;;;;;5.41;100.00;100670.22;5013486;28;20679;-72
2023/01/14 03:38:37;;;;;;;2.43;0.80;;;;;;;5.41;100.00;100667.63;5035103;28;20196;-72
2023/01/14 03:41:09;;;;;;;3.90;1.00;;;;;;;5.43;100.00;100677.09;5029540;28;20220;-72
2023/01/14 03:43:42;;;;;;;1.47;0.73;;;;;;;5.43;100.00;100678.81;5029207;28;20203;-72
2023/01/14 03:46:10;;;;;;;2.87;1.00;;;;;;;5.43;100.00;100679.66;5007899;28;20221;-72
2023/01/14 03:48:38;;;;;;;1.63;0.90;;;;;;;5.44;100.00;100680.56;5012676;28;20600;-72
2023/01/14 03:51:12;;;;;;;4.27;0.80;;;;;;;5.43;100.00;100686.59;5027576;28;20667;-72
2023/01/14 03:53:48;;;;;;;3.80;1.17;;;;;;;5.43;100.00;100684.00;5030479;28;20238;-72
2023/01/14 03:56:20;;;;;;;0.80;0.80;;;;;;;5.35;100.00;100684.03;5012139;28;21695;-72
2023/01/14 03:58:52;;;;;;;3.00;0.97;;;;;;;5.35;100.00;100694.38;5029802;28;20718;-72
2023/01/14 04:01:24;;;;;;;3.00;0.63;;;;;;;5.31;100.00;100692.66;5013248;28;20219;-72
2023/01/14 04:03:53;;;;;;;2.47;1.10;;;;;;;5.30;100.00;100689.22;5025667;28;20196;-72
2023/01/14 04:06:19;;;;;;;1.77;1.30;;;;;;;5.30;100.00;100684.03;5024771;28;20200;-72
2023/01/14 04:08:46;;;;;;;1.87;1.00;;;;;;;5.33;100.00;100688.34;5023964;28;20333;-72
2023/01/14 04:11:12;;;;;;;3.97;1.17;;;;;;;5.27;100.00;100689.22;5031571;28;20208;-72
2023/01/14 04:16:23;;;;;;;2.27;0.90;;;;;;;5.12;100.00;100679.78;5028795;28;20291;-72
2023/01/14 04:18:49;;;;;;;4.00;1.20;;;;;;;5.10;100.00;100691.00;5020804;28;20226;-72
2023/01/14 04:21:17;;;;;;;2.70;1.00;;;;;;;5.10;100.00;100683.22;5019645;28;20275;-72
2023/01/14 04:23:43;;;;;;;2.07;0.87;;;;;;;5.07;100.00;100691.03;5031151;28;20208;-72
2023/01/14 04:26:09;;;;;;;3.03;0.90;;;;;;;5.07;100.00;100693.59;5032757;28;20726;-72
2023/01/14 04:28:36;;;;;;;1.90;0.90;;;;;;;5.03;100.00;100697.91;5029913;28;20619;-72
2023/01/14 04:31:04;;;;;;;3.50;1.13;;;;;;;5.00;100.00;100697.06;5027167;28;21493;-72
2023/01/14 04:33:30;;;;;;;2.73;0.80;;;;;;;4.92;100.00;100709.97;5031011;28;20188;-72
2023/01/14 04:35:56;;;;;;;4.40;1.00;;;;;;;4.88;100.00;100718.59;5026506;28;20260;-72
2023/01/14 04:38:24;;;;;;;2.83;0.87;;;;;;;4.82;100.00;100721.19;5012294;28;20250;-72
2023/01/14 04:40:52;;;;;;;2.90;1.00;;;;;;;4.83;100.00;100721.19;5029225;28;20196;-72
2023/01/14 04:43:19;;;;;;;1.20;0.60;;;;;;;4.93;100.00;100729.81;5028039;28;20283;-72
2023/01/14 04:45:49;;;;;;;3.80;1.20;;;;;;;4.98;100.00;100729.78;5011278;28;20200;-72
2023/01/14 04:48:16;;;;;;;2.07;1.00;;;;;;;5.00;100.00;100730.66;5008281;28;20224;-72
2023/01/14 04:50:44;;;;;;;1.20;0.70;;;;;;;5.03;100.00;100734.09;5030003;28;20208;-72
2023/01/14 04:53:13;;;;;;;4.33;1.10;;;;;;;5.01;100.00;100729.78;5030310;28;20755;-72
2023/01/14 04:55:43;;;;;;;2.03;0.97;;;;;;;4.99;100.00;100729.78;5031781;28;20222;-72
2023/01/14 04:58:11;;;;;;;2.77;0.90;;;;;;;4.99;100.00;100734.09;5010765;28;20265;-72
2023/01/14 05:00:38;;;;;;;2.63;1.10;;;;;;;4.97;100.00;100720.31;5026079;28;20231;-72
2023/01/14 05:03:07;;;;;;;5.73;0.80;;;;;;;4.88;100.00;100729.78;5026689;28;20209;-72
2023/01/14 05:05:34;;;;;;;1.10;0.97;;;;;;;4.79;100.00;100727.22;5030425;28;20207;-72
2023/01/14 05:08:00;;;;;;;3.40;1.03;;;;;;;4.68;100.00;100735.00;5021767;28;20223;-72
2023/01/14 05:10:29;;;;;;;2.37;0.93;;;;;;;4.58;100.00;100725.50;5007583;28;20750;-72
2023/01/14 05:12:57;;;;;;;2.20;0.80;;;;;;;4.59;100.00;100731.53;5013652;28;20214;-72
2023/01/14 05:15:24;;;;;;;1.60;1.00;;;;;;;4.50;100.00;100732.38;5016338;28;20192;-72
2023/01/14 05:17:51;;;;;;;4.93;1.13;;;;;;;4.57;100.00;100735.84;5012102;28;20203;-72
2023/01/14 05:20:17;;;;;;;1.27;0.77;;;;;;;4.57;100.00;100738.41;5031683;28;20234;-72
2023/01/14 05:22:44;;;;;;;3.03;0.93;;;;;;;4.63;100.00;100744.47;5031906;28;20196;-72
2023/01/14 05:25:10;;;;;;;0.70;0.60;;;;;;;4.65;100.00;100745.31;5012315;28;20754;-72
2023/01/14 05:27:37;;;;;;;1.40;0.80;;;;;;;4.70;100.00;100750.50;5007463;28;20216;-72
2023/01/14 05:30:06;;;;;;;4.67;0.93;;;;;;;4.74;100.00;100755.63;5006797;28;20217;-72
2023/01/14 05:32:32;;;;;;;1.60;0.90;;;;;;;4.76;100.00;100754.78;5005356;28;20537;-72
2023/01/14 05:34:58;;;;;;;2.50;1.00;;;;;;;4.76;100.00;100759.94;5016655;28;20799;-72
2023/01/14 05:37:25;;;;;;;0.87;0.60;;;;;;;4.78;100.00;100763.38;5025821;28;20633;-72
2023/01/14 05:39:51;;;;;;;2.40;0.70;;;;;;;4.80;100.00;100757.38;5023787;28;20220;-72
2023/01/14 05:47:54;;;;;;;3.87;1.00;;;;;;;4.76;100.00;100765.13;5029443;28;20244;-72
2023/01/14 05:50:21;;;;;;;2.97;1.13;;;;;;;4.78;100.00;100766.81;5037852;28;20219;-72
2023/01/14 05:52:47;;;;;;;2.67;0.97;;;;;;;4.81;100.00;100763.41;5030291;28;20715;-72
2023/01/14 05:55:14;;;;;;;3.30;1.03;;;;;;;4.80;100.00;100775.47;5036993;28;20704;-72
2023/01/14 05:57:40;;;;;;;1.17;0.80;;;;;;;4.83;100.00;100775.44;5034084;28;20762;-72
2023/01/14 06:06:20;;;;;;;2.43;1.00;;;;;;;4.87;100.00;100782.34;5024880;28;20235;-72
2023/01/14 06:08:33;;;;;;;2.97;0.73;;;;;;;4.89;100.00;100788.38;4993291;28;20706;-72
2023/01/14 06:11:00;;;;;;;5.67;1.00;;;;;;;4.93;100.00;100789.22;5012378;28;20199;-72
2023/01/14 06:13:28;;;;;;;1.37;0.77;;;;;;;4.99;100.00;100793.53;5034138;28;20210;-72
2023/01/14 06:15:56;;;;;;;3.53;1.00;;;;;;;5.02;100.00;100788.38;5042132;28;20218;-72
2023/01/14 06:18:23;;;;;;;2.00;0.80;;;;;;;5.05;100.00;100794.41;5036340;28;20199;-72
2023/01/14 06:20:51;;;;;;;1.47;0.87;;;;;;;5.05;100.00;100793.53;5031902;28;20196;-72
2023/01/14 06:23:18;;;;;;;7.93;1.47;;;;;;;5.06;100.00;100790.09;5015980;28;20221;-72
2023/01/14 06:25:47;;;;;;;3.60;1.13;;;;;;;5.07;100.00;100791.81;5036915;28;20191;-72
2023/01/14 06:28:14;;;;;;;2.20;1.17;;;;;;;5.06;100.00;100790.94;5012684;28;20324;-72
2023/01/14 06:30:41;;;;;;;3.80;1.10;;;;;;;5.06;100.00;100795.25;5038088;28;20270;-72
2023/01/14 06:33:10;;;;;;;1.33;0.70;;;;;;;5.04;100.00;100800.41;5036237;28;20214;-72
2023/01/14 06:35:41;;;;;;;3.67;1.20;;;;;;;5.05;100.00;100790.97;5033709;28;20294;-72
2023/01/14 06:38:08;;;;;;;1.60;0.90;;;;;;;5.04;100.00;100796.97;5028811;28;20204;-73
2023/01/14 06:40:34;;;;;;;5.07;0.77;;;;;;;5.03;100.00;100797.81;5037969;28;20807;-72
2023/01/14 06:43:01;;;;;;;2.33;0.80;;;;;;;5.01;100.00;100779.72;5033427;28;20694;-72
2023/01/14 06:45:27;;;;;;;1.80;1.03;;;;;;;5.03;100.00;100793.53;5034054;28;20283;-72
2023/01/14 06:47:54;;;;;;;2.30;0.90;;;;;;;5.07;100.00;100794.41;5031109;28;20223;-72
2023/01/14 06:50:22;;;;;;;3.60;0.90;;;;;;;5.07;100.00;100795.25;5035371;28;20235;-72
2023/01/14 06:52:48;;;;;;;4.30;0.80;;;;;;;5.06;100.00;100800.41;5019040;28;20205;-72
2023/01/14 06:55:15;;;;;;;3.00;0.90;;;;;;;5.04;100.00;100800.41;5035407;28;20495;-72
2023/01/14 06:57:42;;;;;;;5.30;0.93;;;;;;;5.03;100.00;100801.28;5034827;28;20211;-72
2023/01/14 07:00:10;;;;;;;1.60;0.60;;;;;;;5.05;100.00;100809.06;5040195;28;20222;-72
2023/01/14 07:02:36;;;;;;;1.53;1.00;;;;;;;5.04;100.00;100807.31;5032086;28;20223;-72
2023/01/14 07:05:03;;;;;;;4.03;1.03;;;;;;;5.02;100.00;100809.91;5027869;28;20205;-72
2023/01/14 07:07:30;;;;;;;2.27;0.80;;;;;;;4.99;100.00;100796.97;5014604;28;20268;-72
2023/01/14 07:09:57;;;;;;;4.10;1.37;;;;;;;5.04;100.00;100799.56;5033511;28;20266;-72
2023/01/14 07:12:24;;;;;;;2.27;1.17;;;;;;;5.06;100.00;100803.00;5031800;28;20585;-72
2023/01/14 07:14:50;;;;;;;1.70;0.90;;;;;;;5.05;100.00;100803.88;5014077;28;20210;-71
2023/01/14 07:17:16;;;;;;;0.77;0.77;;;;;;;5.03;100.00;100800.41;5033792;28;20196;-72
2023/01/14 07:19:43;;;;;;;2.43;0.93;;;;;;;5.00;100.00;100800.44;5031376;28;20211;-72
2023/01/14 07:22:09;;;;;;;4.20;1.13;;;;;;;4.98;100.00;100807.31;5034119;28;20202;-72
2023/01/14 07:24:37;;;;;;;3.53;1.00;;;;;;;5.01;100.00;100804.72;5034376;28;20214;-72
2023/01/14 07:27:04;;;;;;;5.03;0.80;;;;;;;4.98;100.00;100808.19;5012145;28;20235;-72
2023/01/14 07:29:30;;;;;;;3.33;0.90;;;;;;;4.96;100.00;100801.28;5036312;28;20410;-72
2023/01/14 07:31:56;;;;;;;4.27;1.10;;;;;;;4.95;100.00;100802.16;5032887;28;20596;-72
2023/01/14 07:34:23;;;;;;;3.97;0.90;;;;;;;4.93;100.00;100795.25;5034551;28;20192;-72
2023/01/14 07:36:49;;;;;;;2.47;0.80;;;;;;;4.96;100.00;100804.75;5028731;28;20204;-72
2023/01/14 07:39:16;;;;;;;2.97;0.80;;;;;;;5.00;100.00;100803.03;5028480;28;20219;-72
2023/01/14 07:41:44;;;;;;;1.57;1.10;;;;;;;5.05;100.00;100801.28;5035705;28;20696;-73
2023/01/14 07:44:23;;;;;;;1.67;0.90;;;;;;;5.08;100.00;100803.84;5028518;28;20204;-72
2023/01/14 07:46:52;;;;;;;3.17;0.83;;;;;;;5.12;100.00;100806.44;5030823;28;20231;-72
2023/01/14 07:49:18;;;;;;;3.27;1.23;;;;;;;5.15;100.00;100817.66;5034448;28;20231;-72
2023/01/14 07:51:45;;;;;;;6.80;1.13;;;;;;;5.15;100.00;100820.22;5019192;28;20196;-72
2023/01/14 07:54:11;;;;;;;1.90;0.93;;;;;;;5.18;100.00;100817.66;5031215;28;20210;-72
2023/01/14 07:56:37;;;;;;;4.63;1.33;;;;;;;5.18;100.00;100809.91;5031958;28;20204;-72
2023/01/14 07:59:05;;;;;;;1.57;1.10;;;;;;;5.20;100.00;100811.59;5033508;28;21875;-72
2023/01/14 08:01:31;;;;;;;2.07;0.80;;;;;;;5.22;100.00;100820.22;5035345;28;20192;-72
2023/01/14 08:03:59;;;;;;;2.37;0.90;;;;;;;5.24;100.00;100812.47;5032236;28;20195;-72
2023/01/14 08:06:25;;;;;;;3.20;1.10;;;;;;;5.24;100.00;100815.03;5034040;28;20207;-72
2023/01/14 08:08:52;;;;;;;4.50;1.17;;;;;;;5.26;100.00;100813.34;5013471;28;20220;-72
2023/01/14 08:11:18;;;;;;;5.67;1.33;;;;;;;5.31;100.00;100811.59;5034559;28;20403;-72
2023/01/14 08:13:45;;;;;;;4.23;1.47;;;;;;;5.38;100.00;100822.78;5031067;28;20209;-72
2023/01/14 08:16:13;;;;;;;2.20;0.90;;;;;;;5.42;100.00;100821.94;5032207;28;20710;-72
2023/01/14 08:18:39;;;;;;;4.03;1.17;;;;;;;5.43;100.00;100821.91;5012341;28;20212;-72
2023/01/14 08:21:08;;;;;;;2.13;1.03;;;;;;;5.44;100.00;100810.72;5032247;28;20196;-72
2023/01/14 08:23:35;;;;;;;3.10;1.30;;;;;;;5.48;100.00;100804.66;5034077;28;20582;-72
2023/01/14 08:26:03;;;;;;;2.30;1.10;;;;;;;5.56;100.00;100808.94;5029175;28;20203;-72
2023/01/14 08:28:32;;;;;;;3.60;1.40;;;;;;;5.63;100.00;100808.94;5029898;28;20214;-72
2023/01/14 08:31:02;;;;;;;4.27;0.87;;;;;;;5.69;100.00;100808.91;5027382;28;20200;-72
2023/01/14 08:33:30;;;;;;;4.73;1.20;;;;;;;5.69;100.00;100813.22;5026585;28;20210;-72
2023/01/14 08:35:56;;;;;;;2.17;1.30;;;;;;;5.60;100.00;100808.09;5029176;28;20590;-72
2023/01/14 08:38:23;;;;;;;2.97;1.17;;;;;;;5.52;100.00;100815.00;5009425;28;20204;-72
2023/01/14 08:40:51;;;;;;;6.83;1.37;;;;;;;5.48;100.00;100806.38;5020068;28;20718;-72
2023/01/14 08:43:19;;;;;;;5.10;1.30;;;;;;;5.40;100.00;100805.53;5028494;28;20212;-72
2023/01/14 08:45:45;;;;;;;7.10;2.03;;;;;;;5.36;100.00;100804.69;5005797;28;20192;-72
2023/01/14 08:48:11;;;;;;;4.00;1.70;;;;;;;5.30;100.00;100800.38;5024134;28;20217;-72
2023/01/14 08:50:39;;;;;;;4.07;1.20;;;;;;;5.33;100.00;100796.94;5027504;28;20226;-72
2023/01/14 08:53:05;;;;;;;4.30;0.90;;;;;;;5.34;100.00;100792.63;5027230;28;20204;-72
2023/01/14 08:55:32;;;;;;;7.70;2.80;;;;;;;5.32;100.00;100790.03;5023640;28;20254;-72
2023/01/14 08:57:58;;;;;;;2.87;1.13;;;;;;;5.36;100.00;100796.94;5029059;28;20238;-72
2023/01/14 09:00:25;;;;;;;3.83;1.33;;;;;;;5.35;100.00;100797.81;5011944;28;20227;-72
2023/01/14 09:02:51;;;;;;;5.33;1.60;;;;;;;5.37;100.00;100805.56;5027124;28;20196;-72
2023/01/14 09:05:18;;;;;;;2.87;1.20;;;;;;;5.34;100.00;100809.00;5026518;28;20200;-72
2023/01/14 09:18:42;;;;;;;4.50;1.10;;;;;;;5.40;100.00;100806.41;5032135;28;20273;-72
2023/01/14 09:21:08;;;;;;;1.70;1.00;;;;;;;5.46;100.00;100815.88;5019915;28;20731;-72
2023/01/14 09:23:36;;;;;;;5.77;1.20;;;;;;;5.48;100.00;100824.50;5033508;28;20199;-72
2023/01/14 09:26:03;;;;;;;4.80;1.43;;;;;;;5.48;100.00;100820.16;5014062;28;20232;-72
2023/01/14 09:28:29;;;;;;;3.40;1.00;;;;;;;5.57;100.00;100818.44;5032902;28;20210;-72
2023/01/14 09:30:55;;;;;;;3.50;1.27;;;;;;;5.56;100.00;100821.88;5030805;28;20292;-72
2023/01/14 09:33:22;;;;;;;2.37;0.87;;;;;;;5.60;100.00;100824.47;5030434;28;20203;-72
2023/01/14 09:35:48;;;;;;;3.37;1.53;;;;;;;5.61;100.00;100825.31;5034556;28;20192;-72
2023/01/14 09:38:15;;;;;;;4.77;1.30;;;;;;;5.65;100.00;100825.31;5025906;28;20203;-72
2023/01/14 09:40:42;;;;;;;5.30;1.10;;;;;;;5.68;100.00;100830.50;5013019;28;20215;-72
2023/01/14 09:43:16;;;;;;;3.00;1.13;;;;;;;5.69;100.00;100833.94;5037014;28;20222;-72
2023/01/14 09:45:43;;;;;;;3.87;1.20;;;;;;;5.72;100.00;100831.34;5034652;28;20222;-72
2023/01/14 09:48:14;;;;;;;2.43;1.20;;;;;;;5.77;100.00;100839.06;5011291;28;20262;-72
2023/01/14 09:50:49;;;;;;;4.57;1.20;;;;;;;5.79;100.00;100834.78;5030129;28;20689;-72
2023/01/14 09:53:31;;;;;;;2.23;1.23;;;;;;;5.82;100.00;100830.47;5014308;28;20200;-72
2023/01/14 09:56:02;;;;;;;1.70;1.10;;;;;;;5.85;100.00;100825.25;5025916;28;20665;-72
2023/01/14 09:58:35;;;;;;;3.87;1.10;;;;;;;5.88;100.00;100825.25;5018203;28;20212;-72
2023/01/14 10:01:12;;;;;;;3.80;1.10;;;;;;;5.91;100.00;100815.75;5010357;28;20200;-72
2023/01/14 10:03:45;;;;;;;2.07;1.10;;;;;;;5.95;100.00;100827.81;5028841;28;20203;-72
2023/01/14 10:06:14;;;;;;;3.83;1.00;;;;;;;5.98;100.00;100810.59;5012672;28;22179;-72
2023/01/14 10:08:45;;;;;;;2.20;1.17;;;;;;;6.04;100.00;100820.03;5012226;28;20240;-72
2023/01/14 10:11:14;;;;;;;2.93;0.90;;;;;;;6.06;100.00;100808.81;5033016;28;20743;-72
2023/01/14 10:13:46;;;;;;;3.57;1.27;;;;;;;6.07;100.00;100804.50;5036432;28;20187;-72
2023/01/14 10:16:19;;;;;;;5.47;1.50;;;;;;;6.03;100.00;100802.78;5031943;28;20211;-72
2023/01/14 10:18:52;;;;;;;4.10;1.20;;;;;;;6.05;100.00;100794.16;5013300;28;20715;-72
2023/01/14 10:21:25;;;;;;;3.03;1.27;;;;;;;6.12;100.00;100791.53;5033282;28;20711;-72
2023/01/14 10:23:51;;;;;;;7.17;1.57;;;;;;;6.18;100.00;100787.19;5011336;28;20211;-72
2023/01/14 10:26:22;;;;;;;4.30;1.23;;;;;;;6.21;100.00;100779.41;5026423;28;20301;-72
2023/01/14 10:28:52;;;;;;;2.60;1.20;;;;;;;6.18;100.00;100770.78;5035789;28;20234;-72
2023/01/14 10:31:23;;;;;;;3.17;1.40;;;;;;;6.14;100.00;100759.59;5015522;28;20231;-72
2023/01/14 10:33:50;;;;;;;11.87;1.70;;;;;;;6.18;100.00;100753.53;5030098;28;20220;-72
2023/01/14 10:36:21;;;;;;;3.27;1.10;;;;;;;6.24;100.00;100757.78;5032105;28;20591;-72
2023/01/14 10:38:48;;;;;;;5.00;1.33;;;;;;;6.29;100.00;100753.44;5033191;28;20229;-72
2023/01/14 10:41:15;;;;;;;4.13;1.50;;;;;;;6.35;100.00;100737.00;5008532;28;20197;-72
2023/01/14 10:43:45;;;;;;;2.67;0.97;;;;;;;6.40;100.00;100730.06;5032460;28;20259;-73
2023/01/14 10:46:16;;;;;;;3.50;1.07;;;;;;;6.44;100.00;100737.81;5023396;28;20218;-72
2023/01/14 10:48:48;;;;;;;3.23;1.03;;;;;;;6.48;100.00;100735.22;5030969;28;20303;-72
2023/01/14 10:51:34;;;;;;;6.07;1.43;;;;;;;6.52;100.00;100732.56;5026807;28;20215;-72
2023/01/14 10:54:15;;;;;;;5.37;1.17;;;;;;;6.58;100.00;100723.91;5021713;28;20619;-72
2023/01/14 10:56:46;;;;;;;5.23;1.03;;;;;;;6.61;100.00;100716.09;5007325;28;20774;-72
2023/01/14 10:59:37;;;;;;;3.83;1.33;;;;;;;6.64;100.00;100718.66;5029291;28;20221;-72
2023/01/14 11:02:04;;;;;;;2.53;1.17;;;;;;;6.67;100.00;100718.63;5028777;28;20201;-72
2023/01/14 11:04:35;;;;;;;4.63;1.30;;;;;;;6.69;100.00;100710.84;5018644;28;20204;-72
2023/01/14 11:07:09;;;;;;;3.53;1.00;;;;;;;6.72;100.00;100711.69;5030085;28;20270;-72
2023/01/14 11:09:37;;;;;;;5.03;1.40;;;;;;;6.73;100.00;100709.94;5029643;28;20224;-72
2023/01/14 11:12:04;;;;;;;6.70;1.30;;;;;;;6.75;100.00;100710.78;5011765;28;20292;-72
2023/01/14 11:14:37;;;;;;;4.17;1.30;;;;;;;6.80;100.00;100709.00;5033345;28;20206;-72
2023/01/14 11:17:21;;;;;;;4.83;1.20;;;;;;;6.83;100.00;100701.22;5021497;28;20204;-72
2023/01/14 11:19:48;;;;;;;2.90;1.30;;;;;;;6.85;100.00;100696.03;5028024;28;20213;-72
2023/01/14 11:22:14;;;;;;;3.43;1.20;;;;;;;6.91;100.00;100698.53;5007542;28;20237;-72
2023/01/14 11:24:45;;;;;;;4.00;1.10;;;;;;;6.95;100.00;100692.47;5021025;28;20278;-72
2023/01/14 11:27:16;;;;;;;4.87;1.80;;;;;;;6.99;100.00;100694.16;5027938;28;20669;-72
2023/01/14 11:29:47;;;;;;;2.13;1.23;;;;;;;7.00;100.00;100688.06;5026492;28;20225;-72
2023/01/14 11:32:16;;;;;;;3.20;1.37;;;;;;;7.01;100.00;100684.63;5031699;28;20213;-73
2023/01/14 11:34:48;;;;;;;6.83;1.40;;;;;;;7.04;100.00;100682.00;5030906;28;20225;-72
2023/01/14 11:37:18;;;;;;;6.97;1.07;;;;;;;7.08;100.00;100672.47;5026311;28;20213;-72
2023/01/14 11:39:51;;;;;;;4.97;1.40;;;;;;;7.13;100.00;100662.91;5024403;28;20218;-72
2023/01/14 11:42:29;;;;;;;4.67;1.10;;;;;;;7.14;100.00;100662.88;5023830;28;20206;-72
2023/01/14 11:45:01;;;;;;;4.37;1.30;;;;;;;7.17;100.00;100651.59;5025504;28;20516;-72
2023/01/14 11:47:30;;;;;;;3.83;1.43;;;;;;;7.18;100.00;100646.41;5019023;28;20229;-72
2023/01/14 11:50:19;;;;;;;5.17;1.30;;;;;;;7.23;100.00;100648.94;5009621;28;20253;-72
2023/01/14 11:53:03;;;;;;;7.50;1.10;;;;;;;7.18;100.00;100635.19;5029320;28;20261;-72
2023/01/14 11:55:31;;;;;;;4.73;1.40;;;;;;;7.14;100.00;100636.94;5029010;28;20228;-72
2023/01/14 11:58:09;;;;;;;4.70;1.33;;;;;;;7.11;100.00;100631.78;5035133;28;20784;-72
2023/01/14 12:00:41;;;;;;;2.73;1.13;;;;;;;7.09;100.00;100633.56;5023608;28;20233;-71
2023/01/14 12:03:17;;;;;;;1.70;1.10;;;;;;;7.10;100.00;100619.69;5021277;28;20215;-71